Decatur, GA (30032)

8:37 AM EDT on August 24, 2016 (GMT -0400)
Historic Avondale Traffic Circle | | Change Station

Elev 1096 ft 33.77 °N, 84.26 °W | Updated 8 minutes ago

Overcast
Overcast
74.8 °F
Feels Like 72 °F
N
1.7
Wind Variable Wind from SW

Today
High -- | Low -- °F
--% Chance of Precip.
Yesterday
High -- | Low -- °F
Precip. -- in
Pressure 30.22 in
Visibility 10.0 miles
Clouds Few 800 ft
Overcast 2800 ft
Heat Index 72 °F
Dew Point 74 °F
Humidity 99%
Rainfall 0.00 in
Snow Depth Not available.
7:05 AM 8:12 PM
Waning Gibbous, 57% visible
METAR KPDK 241153Z 16003KT 10SM FEW008 OVC028 24/22 A3028 RMK AO2 SLP234 T02440222 10250 20233 53017
Pressure 30.22 in
Visibility 10.0 miles
Clouds Few 800 ft
Overcast 2800 ft
Heat Index 72 °F
Dew Point 74 °F
Humidity 99%
Rainfall 0.00 in
Snow Depth Not available.
7:05 AM 8:12 PM
Waning Gibbous, 57% visible
METAR KPDK 241153Z 16003KT 10SM FEW008 OVC028 24/22 A3028 RMK AO2 SLP234 T02440222 10250 20233 53017

10-Day Weather Forecast

Almanac

Astronomy

Aug. 24, 2016 Rise Set
Actual Time
Civil Twilight
Nautical Twilight
Astronomical Twilight
Moon
Length of Visible Light
Length of Day
Tomorrow will be .
, % of the Moon is Illuminated

Today's Extremes

State Highs State Lows

Community

WunderPhotos

Upload Photos

1,934,583 photos uploaded!

WunderBlog® & News

Nearby

Air Quality

  Air Quality AQ Index Pollutant
Not available.

Snow Depth

Station Depth Elevation

Earthquake Activity

City Distance Mag. Time & Date
Minimum magnitude displayed is 2.5.

Coastal Water Temperatures

Place Temperature

Stations

Nearby Weather Stations

Station Location Temp. Windchill Dew Point Humidity Wind Precip. Elev Updated Type
                   

Watches & Warnings

There are currently no watches in effect.